createdAt,value
2019-01-09T00:01:40.976Z,72.11
2019-01-09T00:04:45.169Z,72.31
2019-01-09T00:07:49.717Z,71.87
2019-01-09T00:10:53.820Z,72.03
2019-01-09T00:13:59.437Z,71.56
2019-01-09T00:17:06.589Z,72.05
2019-01-09T00:20:10.932Z,72.09
2019-01-09T00:23:15.506Z,71.86
2019-01-09T00:26:19.810Z,71.49
2019-01-09T00:29:23.925Z,71.43
2019-01-09T00:32:27.965Z,71.37
2019-01-09T00:35:37.142Z,71.19
2019-01-09T00:38:40.586Z,71.27
2019-01-09T00:41:46.771Z,72.11
2019-01-09T00:45:03.778Z,71.93
2019-01-09T00:48:09.817Z,72.22
2019-01-09T00:51:13.932Z,71.67
2019-01-09T00:54:18.565Z,72.31
2019-01-09T00:57:22.849Z,71.58
2019-01-09T01:00:30.497Z,71.47
2019-01-09T01:04:31.029Z,71.28
2019-01-09T01:07:55.470Z,71.30
2019-01-09T01:11:30.595Z,70.95
2019-01-09T01:15:18.784Z,71.23
2019-01-09T01:18:48.919Z,71.59
2019-01-09T01:22:04.258Z,70.29
2019-01-09T01:25:50.542Z,71.13
2019-01-09T01:29:36.461Z,71.18
2019-01-09T01:33:25.319Z,71.04
2019-01-09T01:37:08.012Z,71.48
2019-01-09T01:41:02.138Z,72.01
2019-01-09T01:44:30.777Z,71.68
2019-01-09T01:48:10.565Z,71.42
2019-01-09T01:51:59.263Z,71.38
2019-01-09T01:55:26.684Z,72.14
2019-01-09T01:58:56.420Z,70.88
2019-01-09T02:02:15.638Z,70.78
2019-01-09T02:05:47.719Z,70.65
2019-01-09T02:09:13.434Z,70.26
2019-01-09T02:12:31.041Z,70.71
2019-01-09T02:16:10.868Z,71.03
2019-01-09T02:19:23.355Z,71.73
2019-01-09T02:23:00.927Z,71.71
2019-01-09T02:26:42.284Z,71.54
2019-01-09T02:30:33.970Z,71.66
2019-01-09T02:33:38.016Z,71.68
2019-01-09T02:36:45.288Z,71.48
2019-01-09T02:39:51.387Z,70.82
2019-01-09T02:42:55.382Z,70.96
2019-01-09T02:46:01.395Z,70.83
2019-01-09T02:49:05.640Z,70.71
2019-01-09T02:52:11.387Z,70.65
2019-01-09T02:55:15.712Z,71.06
2019-01-09T02:58:19.946Z,71.12
2019-01-09T03:01:24.356Z,70.90
2019-01-09T03:04:28.567Z,71.25
2019-01-09T03:07:32.795Z,71.31
2019-01-09T03:10:37.478Z,70.89
2019-01-09T03:13:44.499Z,71.33
2019-01-09T03:16:50.670Z,71.42
2019-01-09T03:19:54.679Z,71.54
2019-01-09T03:22:58.984Z,71.25
2019-01-09T03:26:06.154Z,71.30
2019-01-09T03:29:10.615Z,71.43
2019-01-09T03:32:14.838Z,71.79
2019-01-09T03:35:19.043Z,71.70
2019-01-09T03:38:23.262Z,71.74
2019-01-09T03:41:27.701Z,71.65
2019-01-09T03:44:32.666Z,71.48
2019-01-09T03:47:36.866Z,72.19
2019-01-09T03:50:41.043Z,72.43
2019-01-09T03:53:45.213Z,72.29
2019-01-09T03:56:49.806Z,72.28
2019-01-09T03:59:54.063Z,72.79
2019-01-09T04:02:58.377Z,72.14
2019-01-09T04:06:02.775Z,72.21
2019-01-09T04:09:07.311Z,72.52
2019-01-09T04:12:11.617Z,72.57
2019-01-09T04:15:17.245Z,72.11
2019-01-09T04:18:21.475Z,72.14
2019-01-09T04:21:25.808Z,72.65
2019-01-09T04:24:30.030Z,72.64
2019-01-09T04:27:34.547Z,72.83
2019-01-09T04:30:38.760Z,73.16
2019-01-09T04:33:45.232Z,72.79
2019-01-09T04:36:52.186Z,73.29
2019-01-09T04:39:56.646Z,73.45
2019-01-09T04:43:01.108Z,73.97
2019-01-09T04:46:05.631Z,73.19
2019-01-09T04:49:12.383Z,73.47
2019-01-09T04:52:16.507Z,73.25
2019-01-09T04:55:20.851Z,73.12
2019-01-09T04:58:24.944Z,72.72
2019-01-09T05:01:29.388Z,72.84
2019-01-09T05:04:33.630Z,72.73
2019-01-09T05:07:37.968Z,72.56
2019-01-09T05:10:44.829Z,72.71
2019-01-09T05:13:49.198Z,73.17
2019-01-09T05:16:53.418Z,73.56
2019-01-09T05:19:57.779Z,73.39
2019-01-09T05:23:02.298Z,73.51
2019-01-09T05:26:06.434Z,73.65
2019-01-09T05:29:10.589Z,74.08
2019-01-09T05:32:14.926Z,73.87
2019-01-09T05:35:19.124Z,73.75
2019-01-09T08:08:28.488Z,77.32
2019-01-09T08:11:32.424Z,76.78
2019-01-09T08:14:36.295Z,76.10
2019-01-09T08:17:40.148Z,75.08
2019-01-09T08:20:44.148Z,75.11
2019-01-09T08:23:53.249Z,75.18
2019-01-09T08:26:57.274Z,74.95
2019-01-09T08:30:01.148Z,75.20
2019-01-09T08:33:05.152Z,74.80
2019-01-09T08:36:09.142Z,74.67
2019-01-09T08:39:13.005Z,73.89
2019-01-09T08:42:20.367Z,74.19
2019-01-09T08:45:24.410Z,74.07
2019-01-09T08:48:28.293Z,73.68
2019-01-09T08:51:32.228Z,74.43
2019-01-09T08:54:36.078Z,74.05
2019-01-09T08:57:39.978Z,74.32
2019-01-09T09:00:43.832Z,74.54
2019-01-09T09:03:47.845Z,73.81
2019-01-09T09:06:51.967Z,73.64
2019-01-09T09:09:55.924Z,74.23
2019-01-09T09:12:59.901Z,74.28
2019-01-09T09:16:04.041Z,73.30
2019-01-09T09:19:08.002Z,73.18
2019-01-09T09:22:12.034Z,73.65
2019-01-09T09:25:17.063Z,73.30
2019-01-09T09:28:22.719Z,73.59
2019-01-09T09:31:26.795Z,74.11
2019-01-09T09:34:30.722Z,74.02
2019-01-09T09:37:35.367Z,74.32
2019-01-09T09:40:39.400Z,73.49
2019-01-09T09:43:43.805Z,73.89
2019-01-09T09:46:48.402Z,74.06
2019-01-09T09:49:52.283Z,74.32
2019-01-09T09:52:58.525Z,73.60
2019-01-09T09:56:02.477Z,73.71
2019-01-09T09:59:06.424Z,74.18
2019-01-09T10:02:10.472Z,73.76
2019-01-09T10:05:17.826Z,73.89
2019-01-09T10:08:29.363Z,73.31
2019-01-09T10:11:27.403Z,73.11
2019-01-09T10:14:31.277Z,73.16
2019-01-09T10:17:35.161Z,73.23
2019-01-09T10:20:39.119Z,72.79
2019-01-09T10:23:43.079Z,73.68
2019-01-09T10:26:49.471Z,73.65
2019-01-09T10:29:53.427Z,72.67
2019-01-09T10:32:57.302Z,73.73
2019-01-09T10:36:01.378Z,72.61
2019-01-09T10:39:09.532Z,72.68
2019-01-09T10:42:13.565Z,73.00
2019-01-09T10:45:20.021Z,72.80
2019-01-09T10:48:24.148Z,73.07
2019-01-09T10:51:28.201Z,73.02
2019-01-09T10:54:32.092Z,72.37
2019-01-09T10:57:35.959Z,71.83
2019-01-09T11:00:39.814Z,72.44
2019-01-09T11:03:43.809Z,72.68
2019-01-09T11:06:47.760Z,72.81
2019-01-09T11:09:51.662Z,72.89
2019-01-09T11:12:55.606Z,72.78
2019-01-09T11:15:59.460Z,72.64
2019-01-09T11:19:03.462Z,71.63
2019-01-09T11:22:07.522Z,71.90
2019-01-09T11:25:15.298Z,72.99
2019-01-09T11:28:19.286Z,72.09
2019-01-09T11:31:23.250Z,71.42
2019-01-09T11:34:27.176Z,71.39
2019-01-09T11:37:31.039Z,71.50
2019-01-09T11:40:34.984Z,71.93
2019-01-09T11:43:38.907Z,70.80
2019-01-09T11:46:46.160Z,70.84
2019-01-09T11:49:50.025Z,71.02
2019-01-09T11:52:53.991Z,71.49
2019-01-09T11:55:57.840Z,71.38
2019-01-09T11:59:01.725Z,71.38
2019-01-09T12:02:11.261Z,71.49
2019-01-09T12:05:15.924Z,70.97
2019-01-09T12:08:19.929Z,70.57
2019-01-09T12:11:23.899Z,69.77
2019-01-09T12:14:27.758Z,70.12
2019-01-09T12:17:31.697Z,70.14
2019-01-09T12:20:35.571Z,69.92
2019-01-09T12:23:39.425Z,70.74
2019-01-09T12:26:43.294Z,70.77
2019-01-09T12:29:47.234Z,70.50
2019-01-09T12:32:51.185Z,70.03
2019-01-09T12:35:55.133Z,70.18
2019-01-09T12:39:03.522Z,70.08
2019-01-09T12:42:07.455Z,69.18
2019-01-09T12:45:12.842Z,69.56
2019-01-09T12:48:16.723Z,69.40
2019-01-09T12:51:21.919Z,69.32
2019-01-09T12:54:25.956Z,70.05
2019-01-09T12:57:29.878Z,68.61
2019-01-09T13:00:34.888Z,68.57
2019-01-09T13:03:38.858Z,69.53
2019-01-09T13:06:42.874Z,69.53
2019-01-09T13:09:46.829Z,70.11
2019-01-09T13:12:52.798Z,70.03
2019-01-09T13:15:56.553Z,69.94
2019-01-09T13:19:00.478Z,70.68
2019-01-09T13:22:04.495Z,69.88
2019-01-09T13:25:09.741Z,69.10
2019-01-09T13:28:13.680Z,69.20
2019-01-09T13:31:17.627Z,69.70
2019-01-09T13:34:21.595Z,70.27
2019-01-09T13:37:25.711Z,70.31
2019-01-09T13:40:29.712Z,70.46
2019-01-09T13:43:33.674Z,71.15
2019-01-09T13:46:37.714Z,70.62
2019-01-09T13:49:41.740Z,71.65
2019-01-09T13:52:45.771Z,71.69
2019-01-09T13:55:49.726Z,71.30
2019-01-09T13:58:53.566Z,70.34
2019-01-09T14:01:57.561Z,70.15
2019-01-09T14:05:03.700Z,70.92
2019-01-09T14:08:07.462Z,70.88
2019-01-09T14:11:11.510Z,71.46
2019-01-09T14:14:15.553Z,71.96
2019-01-09T14:17:19.413Z,71.20
2019-01-09T14:20:23.373Z,71.97
2019-01-09T14:23:27.250Z,72.16
2019-01-09T14:26:31.237Z,71.55
2019-01-09T14:29:35.167Z,71.26
2019-01-09T14:32:39.114Z,72.01
2019-01-09T14:35:43.168Z,72.12
2019-01-09T14:38:50.543Z,72.85
2019-01-09T14:41:54.496Z,72.56
2019-01-09T14:44:58.405Z,72.52
2019-01-09T14:48:02.333Z,72.69
2019-01-09T14:51:06.498Z,73.30
2019-01-09T14:54:10.348Z,73.39
2019-01-09T14:57:14.359Z,73.59
2019-01-09T15:00:20.523Z,74.18
2019-01-09T15:03:24.419Z,74.04
2019-01-09T15:06:28.378Z,74.22
2019-01-09T15:09:32.865Z,74.47
2019-01-09T15:12:36.807Z,74.48
2019-01-09T15:15:40.816Z,74.17
2019-01-09T15:18:44.759Z,74.05
2019-01-09T15:21:48.701Z,74.31
2019-01-09T15:24:53.145Z,74.16
2019-01-09T15:27:57.087Z,74.03
2019-01-09T15:31:02.849Z,74.13
2019-01-09T15:34:06.876Z,73.40
2019-01-09T15:37:10.834Z,73.76
2019-01-09T15:40:21.052Z,74.13
2019-01-09T15:43:26.712Z,73.96
2019-01-09T15:46:30.598Z,74.03
2019-01-09T15:49:34.565Z,74.00
2019-01-09T15:52:38.486Z,73.97
2019-01-09T15:55:42.540Z,73.87
2019-01-09T15:58:46.465Z,73.70
2019-01-09T16:01:50.390Z,73.68
2019-01-09T16:04:56.058Z,74.31
2019-01-09T16:07:59.938Z,73.85
2019-01-09T16:11:04.550Z,74.08
2019-01-09T16:14:08.510Z,73.41
2019-01-09T16:17:12.439Z,73.30
2019-01-09T16:20:17.571Z,73.12
2019-01-09T16:23:21.469Z,73.15
2019-01-09T16:26:25.329Z,73.02
2019-01-09T16:29:29.188Z,73.39
2019-01-09T16:32:33.174Z,73.33
2019-01-09T16:35:37.242Z,73.45
2019-01-09T16:38:41.213Z,72.72
2019-01-09T16:41:45.076Z,73.11
2019-01-09T16:44:48.934Z,73.28
2019-01-09T16:47:52.946Z,73.03
2019-01-09T16:50:56.977Z,73.66
2019-01-09T16:54:00.826Z,73.18
2019-01-09T16:57:07.517Z,72.91
2019-01-09T17:00:18.390Z,72.55
2019-01-09T17:03:22.415Z,72.66
2019-01-09T17:06:26.360Z,73.16
2019-01-09T17:09:30.295Z,73.52
2019-01-09T17:12:34.204Z,72.66
2019-01-09T17:15:40.082Z,73.37
2019-01-09T17:18:43.958Z,73.89
2019-01-09T17:21:47.898Z,73.99
2019-01-09T17:24:51.852Z,74.06
2019-01-09T17:27:55.900Z,73.86
2019-01-09T17:31:00.258Z,74.05
2019-01-09T17:34:04.272Z,74.64
2019-01-09T17:37:08.240Z,74.85
2019-01-09T17:40:14.657Z,74.33
2019-01-09T17:43:18.608Z,74.57
2019-01-09T17:46:22.540Z,75.08
2019-01-09T17:49:26.559Z,73.99
2019-01-09T17:52:30.398Z,73.33
2019-01-09T17:55:34.426Z,72.76
2019-01-09T17:58:38.445Z,72.55
2019-01-09T18:01:42.308Z,72.48
2019-01-09T18:04:46.411Z,72.42
2019-01-09T18:07:52.166Z,71.69
2019-01-09T18:10:56.120Z,72.28
2019-01-09T18:13:59.992Z,71.87
2019-01-09T18:17:04.298Z,71.97
2019-01-09T18:20:12.397Z,71.59
2019-01-09T18:23:16.265Z,71.25
2019-01-09T18:26:20.223Z,71.74
2019-01-09T18:29:24.334Z,71.67
2019-01-09T18:32:37.410Z,72.06
2019-01-09T18:36:25.140Z,71.82
2019-01-09T18:39:58.585Z,72.00
2019-01-09T18:43:27.369Z,72.45
2019-01-09T18:47:17.717Z,72.90
2019-01-09T18:51:02.791Z,73.09
2019-01-09T18:54:07.115Z,73.19
2019-01-09T18:57:11.098Z,73.27
2019-01-09T19:00:21.654Z,73.64
2019-01-09T19:03:28.652Z,73.39
2019-01-09T19:06:35.389Z,73.24
2019-01-09T19:09:38.830Z,73.27
2019-01-09T19:12:50.848Z,73.22
2019-01-09T19:15:54.934Z,72.38
2019-01-09T19:19:28.481Z,72.89
2019-01-09T19:22:32.455Z,72.73
2019-01-09T19:25:36.394Z,73.14
2019-01-09T19:28:40.432Z,73.26
2019-01-09T19:31:47.714Z,72.97
2019-01-09T19:35:06.132Z,73.08
2019-01-09T19:38:10.145Z,73.00
2019-01-09T19:41:17.189Z,73.01
2019-01-09T19:44:19.705Z,73.11
2019-01-09T19:47:28.822Z,73.30
2019-01-09T19:50:42.311Z,73.27
2019-01-09T19:53:41.668Z,74.22
2019-01-09T19:56:45.717Z,74.65
2019-01-09T19:59:53.144Z,74.61
2019-01-09T20:02:57.178Z,73.94
2019-01-09T20:06:01.177Z,74.26
2019-01-09T20:09:08.499Z,74.46
2019-01-09T20:12:12.620Z,75.13
2019-01-09T20:15:17.838Z,75.12
2019-01-09T20:18:25.127Z,75.81
2019-01-09T20:21:29.151Z,75.89
2019-01-09T20:24:33.095Z,75.55
2019-01-09T20:27:37.188Z,75.10
2019-01-09T20:30:41.414Z,75.68
2019-01-09T20:33:45.634Z,75.49
2019-01-09T20:36:49.629Z,74.63
2019-01-09T20:39:53.731Z,75.11
2019-01-09T20:42:57.734Z,75.93
2019-01-09T20:46:01.641Z,75.28
2019-01-09T20:49:05.698Z,74.95
2019-01-09T20:52:10.420Z,75.23
2019-01-09T20:55:15.197Z,75.96
2019-01-09T20:58:19.161Z,77.92
2019-01-09T21:01:23.318Z,79.15
2019-01-09T21:04:27.283Z,79.93
2019-01-09T21:07:31.306Z,80.35
2019-01-09T21:10:38.017Z,80.16
2019-01-09T21:13:43.523Z,80.44
2019-01-09T21:16:47.554Z,80.62
2019-01-09T21:19:51.579Z,80.60
2019-01-09T21:22:55.586Z,80.65
2019-01-09T21:25:59.753Z,80.93
2019-01-09T21:29:03.999Z,81.05
2019-01-09T21:32:08.293Z,80.83
2019-01-09T21:35:12.929Z,80.80
2019-01-09T21:38:16.949Z,80.53
2019-01-09T21:41:20.891Z,80.61
2019-01-09T21:44:24.805Z,80.59
2019-01-09T21:47:28.900Z,80.52
2019-01-09T21:50:33.211Z,80.69
2019-01-09T21:53:57.876Z,80.34
2019-01-09T21:57:02.155Z,80.72
2019-01-09T22:00:08.378Z,81.17
2019-01-09T22:03:12.619Z,81.08
2019-01-09T22:06:16.756Z,81.24
2019-01-09T22:09:20.798Z,81.05
2019-01-09T22:12:24.843Z,79.21
2019-01-09T22:15:31.135Z,78.96
2019-01-09T22:18:35.668Z,78.87
2019-01-09T22:21:40.284Z,79.72
2019-01-09T22:24:45.098Z,80.48
2019-01-09T22:27:49.293Z,80.87
2019-01-09T22:30:53.222Z,80.93
2019-01-09T22:33:57.283Z,80.86
2019-01-09T22:37:01.869Z,81.03
2019-01-09T22:40:06.815Z,81.23
2019-01-09T22:43:11.234Z,81.32
2019-01-09T22:46:15.306Z,80.83
2019-01-09T22:49:19.301Z,81.01
2019-01-09T22:52:23.310Z,81.10
2019-01-09T22:55:27.348Z,81.38
2019-01-09T22:58:31.579Z,81.02
2019-01-09T23:01:35.577Z,80.89
2019-01-09T23:04:39.536Z,80.37
2019-01-09T23:07:43.462Z,80.78
2019-01-09T23:10:54.260Z,81.01
2019-01-09T23:13:53.813Z,81.86
2019-01-09T23:16:57.745Z,82.63
2019-01-09T23:20:01.631Z,83.15
2019-01-09T23:23:05.819Z,83.72
2019-01-09T23:26:09.825Z,84.25
2019-01-09T23:29:13.754Z,84.56
2019-01-09T23:32:17.856Z,84.69
2019-01-09T23:35:21.853Z,85.05
2019-01-09T23:38:25.696Z,85.07
2019-01-09T23:41:32.248Z,85.04
2019-01-09T23:44:35.913Z,85.10
2019-01-09T23:47:40.545Z,84.93
2019-01-09T23:50:44.558Z,85.16
2019-01-09T23:53:48.497Z,85.40
2019-01-09T23:56:52.346Z,85.33
2019-01-09T23:59:56.273Z,85.14
